Time;durP1;ratioP1;P1;durP2;ratioP2;P2;SDS_P1;SDS_P2;PMS_P1;PMS_P2;Temp;Humidity;BMP_temperature;BMP_pressure;BME280_temperature;BME280_humidity;BME280_pressure;Samples;Min_cycle;Max_cycle;Signal;HPM_P1;HPM_P2
2023/06/29 00:02:24;;;;;;;14.00;4.05;;;25.20;59.80;;;;;;5069413;28;20029;-57
2023/06/29 00:04:51;;;;;;;15.77;3.78;;;25.20;59.90;;;;;;5069288;28;20020;-57
2023/06/29 00:07:16;;;;;;;13.60;3.65;;;25.10;59.90;;;;;;5083127;28;20035;-57
2023/06/29 00:09:42;;;;;;;14.80;3.92;;;25.10;60.00;;;;;;5084500;28;20060;-57
2023/06/29 00:12:08;;;;;;;15.63;3.83;;;25.10;60.10;;;;;;5068599;28;20051;-57
2023/06/29 00:14:33;;;;;;;12.88;3.72;;;25.10;60.10;;;;;;5082912;28;20044;-57
2023/06/29 00:16:59;;;;;;;12.25;3.50;;;25.10;60.00;;;;;;5086340;28;20067;-57
2023/06/29 00:19:24;;;;;;;11.15;3.15;;;25.00;60.20;;;;;;5068651;28;20029;-57
2023/06/29 00:21:50;;;;;;;12.90;3.85;;;25.00;60.30;;;;;;5087247;28;20021;-58
2023/06/29 00:24:15;;;;;;;12.48;3.42;;;24.90;60.30;;;;;;5084858;28;20033;-57
2023/06/29 00:26:41;;;;;;;13.75;2.90;;;24.90;60.30;;;;;;5083821;28;20021;-57
2023/06/29 00:29:06;;;;;;;11.85;3.67;;;24.90;60.30;;;;;;5083664;28;20021;-57
2023/06/29 00:31:32;;;;;;;15.02;3.60;;;24.90;60.40;;;;;;5068946;28;20032;-58
2023/06/29 00:33:57;;;;;;;10.98;3.35;;;24.90;60.60;;;;;;5081352;28;20040;-57
2023/06/29 00:36:23;;;;;;;11.02;3.50;;;24.90;60.50;;;;;;5085156;28;20107;-57
2023/06/29 00:38:49;;;;;;;10.75;3.65;;;24.80;60.50;;;;;;5086188;28;20025;-57
2023/06/29 00:41:14;;;;;;;7.75;3.08;;;24.80;60.60;;;;;;5066575;28;20029;-57
2023/06/29 00:43:43;;;;;;;11.95;2.97;;;24.80;60.70;;;;;;5084926;28;20028;-57
2023/06/29 00:46:09;;;;;;;9.02;3.00;;;24.70;60.60;;;;;;5067525;28;20017;-57
2023/06/29 00:48:36;;;;;;;11.07;2.97;;;24.70;60.70;;;;;;5065469;28;20051;-57
2023/06/29 00:51:02;;;;;;;8.65;3.03;;;24.70;60.90;;;;;;5068479;28;20029;-57
2023/06/29 00:53:28;;;;;;;7.47;3.08;;;24.60;61.00;;;;;;5063312;28;20028;-57
2023/06/29 00:55:54;;;;;;;8.15;3.22;;;24.60;61.00;;;;;;5063656;28;20020;-57
2023/06/29 00:58:19;;;;;;;9.82;2.90;;;24.60;61.20;;;;;;5067511;28;20052;-57
2023/06/29 01:00:45;;;;;;;10.90;3.22;;;24.50;61.30;;;;;;5068082;28;20031;-57
2023/06/29 01:03:11;;;;;;;8.98;2.53;;;24.50;61.40;;;;;;5049249;28;20025;-57
2023/06/29 01:05:36;;;;;;;9.15;2.63;;;24.50;61.40;;;;;;5068848;28;20042;-57
2023/06/29 01:08:09;;;;;;;7.25;2.88;;;24.50;61.40;;;;;;5086464;28;20084;-57
2023/06/29 01:10:34;;;;;;;6.10;3.10;;;24.50;61.60;;;;;;5046043;28;20033;-57
2023/06/29 01:13:00;;;;;;;8.40;3.10;;;24.40;61.60;;;;;;5064908;28;20039;-57
2023/06/29 01:15:25;;;;;;;8.65;2.60;;;24.40;61.70;;;;;;5067664;28;20466;-57
2023/06/29 01:17:54;;;;;;;4.10;2.55;;;24.40;61.60;;;;;;5062043;28;20024;-57
2023/06/29 01:20:19;;;;;;;5.68;2.50;;;24.40;61.60;;;;;;5065962;28;20037;-57
2023/06/29 01:22:53;;;;;;;8.50;2.45;;;24.40;61.70;;;;;;5067447;28;20088;-57
2023/06/29 01:25:19;;;;;;;11.50;2.83;;;24.40;61.80;;;;;;5067615;28;20032;-57
2023/06/29 01:27:46;;;;;;;8.98;2.65;;;24.30;61.70;;;;;;5068304;28;20028;-57
2023/06/29 01:30:12;;;;;;;8.73;2.42;;;24.30;61.80;;;;;;5066213;28;20040;-57
2023/06/29 01:32:37;;;;;;;7.72;2.65;;;24.30;61.80;;;;;;5067041;28;20025;-57
2023/06/29 01:35:03;;;;;;;9.80;2.47;;;24.30;61.90;;;;;;5067481;28;20051;-57
2023/06/29 01:37:30;;;;;;;9.00;2.63;;;24.20;62.00;;;;;;5067952;28;20033;-57
2023/06/29 01:39:59;;;;;;;5.68;2.38;;;24.20;62.10;;;;;;5066744;28;20028;-57
2023/06/29 01:42:25;;;;;;;8.52;2.58;;;24.20;62.30;;;;;;5067617;28;20029;-57
2023/06/29 01:44:51;;;;;;;6.55;2.78;;;24.10;62.30;;;;;;5065879;28;20025;-57
2023/06/29 01:47:17;;;;;;;8.00;2.30;;;24.10;62.30;;;;;;5049926;28;20396;-56
2023/06/29 01:49:42;;;;;;;6.90;2.58;;;24.10;62.40;;;;;;5066614;28;20047;-57
2023/06/29 01:52:08;;;;;;;5.63;2.70;;;24.10;62.40;;;;;;5049318;28;20552;-57
2023/06/29 01:54:33;;;;;;;5.03;2.38;;;24.10;62.50;;;;;;5058268;28;20468;-57
2023/06/29 01:56:59;;;;;;;6.43;2.80;;;24.10;62.50;;;;;;5063734;28;20034;-56
2023/06/29 01:59:25;;;;;;;7.35;2.28;;;24.10;62.60;;;;;;5067022;28;20094;-58
2023/06/29 02:01:50;;;;;;;5.32;2.58;;;24.00;62.60;;;;;;5067306;28;20104;-58
2023/06/29 02:04:16;;;;;;;4.40;2.30;;;24.00;62.70;;;;;;5065218;28;20031;-58
2023/06/29 02:06:42;;;;;;;5.18;2.20;;;24.00;62.80;;;;;;5052882;28;20062;-58
2023/06/29 02:09:08;;;;;;;9.35;3.53;;;23.90;62.80;;;;;;5053755;28;20021;-58
2023/06/29 02:11:33;;;;;;;7.03;4.53;;;23.90;62.70;;;;;;5069511;28;20055;-58
2023/06/29 02:13:59;;;;;;;6.65;3.50;;;23.90;62.80;;;;;;5088467;28;20040;-58
2023/06/29 02:16:24;;;;;;;9.73;3.22;;;23.80;62.90;;;;;;5088833;28;20036;-58
2023/06/29 02:18:50;;;;;;;6.07;3.10;;;23.90;63.00;;;;;;5087896;28;20080;-58
2023/06/29 02:21:15;;;;;;;12.70;3.20;;;23.80;63.00;;;;;;5088449;28;20070;-58
2023/06/29 02:23:41;;;;;;;7.47;2.97;;;23.80;63.00;;;;;;5070698;28;20024;-58
2023/06/29 02:26:06;;;;;;;8.52;2.80;;;23.80;63.10;;;;;;5089394;28;20028;-58
2023/06/29 02:28:32;;;;;;;6.97;3.30;;;23.80;63.20;;;;;;5088719;28;20115;-58
2023/06/29 02:30:57;;;;;;;5.43;3.00;;;23.70;63.20;;;;;;5064469;28;20024;-58
2023/06/29 02:33:23;;;;;;;5.18;3.08;;;23.70;63.40;;;;;;5069400;28;20035;-58
2023/06/29 02:35:48;;;;;;;8.13;3.58;;;23.70;63.50;;;;;;5087449;28;20031;-58
2023/06/29 02:38:14;;;;;;;7.00;3.25;;;23.70;63.60;;;;;;5067601;28;20036;-58
2023/06/29 02:40:39;;;;;;;6.70;3.30;;;23.60;63.70;;;;;;5038553;28;20024;-58
2023/06/29 02:43:05;;;;;;;5.15;3.42;;;23.60;63.70;;;;;;5069110;28;20076;-58
2023/06/29 02:45:30;;;;;;;7.05;3.60;;;23.70;63.80;;;;;;5088285;28;20050;-58
2023/06/29 02:47:56;;;;;;;6.72;3.78;;;23.60;63.70;;;;;;5070161;28;20036;-58
2023/06/29 02:50:22;;;;;;;7.63;4.70;;;23.60;63.80;;;;;;5067491;28;20033;-58
2023/06/29 02:52:47;;;;;;;6.00;4.72;;;23.60;63.90;;;;;;5088378;28;20029;-58
2023/06/29 02:55:13;;;;;;;6.50;3.70;;;23.60;63.90;;;;;;5078565;28;20039;-58
2023/06/29 02:57:39;;;;;;;10.40;4.10;;;23.60;64.00;;;;;;5071117;28;20063;-58
2023/06/29 03:00:05;;;;;;;7.07;3.97;;;23.50;64.10;;;;;;5053434;28;20025;-58
2023/06/29 03:02:30;;;;;;;5.63;3.80;;;23.50;64.20;;;;;;5048864;28;20081;-58
2023/06/29 03:04:56;;;;;;;4.68;3.47;;;23.50;64.30;;;;;;5068556;28;20107;-58
2023/06/29 03:07:21;;;;;;;24.77;4.22;;;23.50;64.40;;;;;;5068706;28;20025;-58
2023/06/29 03:09:47;;;;;;;9.88;3.97;;;23.50;64.60;;;;;;5058151;28;20105;-58
2023/06/29 03:12:12;;;;;;;7.00;3.60;;;23.50;64.60;;;;;;5050847;28;20036;-58
2023/06/29 03:14:38;;;;;;;7.85;3.60;;;23.50;64.50;;;;;;5050139;28;20082;-58
2023/06/29 03:17:04;;;;;;;8.00;3.60;;;23.40;64.60;;;;;;5050268;28;20021;-58
2023/06/29 03:19:29;;;;;;;5.88;3.40;;;23.40;64.60;;;;;;5066800;28;20067;-58
2023/06/29 03:21:55;;;;;;;11.18;4.78;;;23.40;64.70;;;;;;5087540;28;20082;-58
2023/06/29 03:24:21;;;;;;;8.02;4.43;;;23.40;64.80;;;;;;5087047;28;20047;-58
2023/06/29 03:26:46;;;;;;;53.40;8.60;;;23.30;64.90;;;;;;5088676;28;20028;-58
2023/06/29 03:29:12;;;;;;;67.97;12.05;;;23.30;64.90;;;;;;5087690;28;20043;-58
2023/06/29 03:31:37;;;;;;;48.17;10.00;;;23.30;65.00;;;;;;5069635;28;20037;-58
2023/06/29 03:34:03;;;;;;;48.10;8.45;;;23.30;65.00;;;;;;5085139;28;20016;-58
2023/06/29 03:36:28;;;;;;;45.55;8.52;;;23.30;65.00;;;;;;5067244;28;20092;-58
2023/06/29 03:38:54;;;;;;;45.53;8.27;;;23.30;64.90;;;;;;5084889;28;20020;-58
2023/06/29 03:41:19;;;;;;;36.92;8.82;;;23.30;65.00;;;;;;5067330;28;20079;-58
2023/06/29 03:43:45;;;;;;;37.78;7.45;;;23.20;65.00;;;;;;5069315;28;20028;-58
2023/06/29 03:46:10;;;;;;;26.33;6.57;;;23.20;65.10;;;;;;5070218;28;20025;-58
2023/06/29 03:48:36;;;;;;;35.33;7.43;;;23.20;65.20;;;;;;5065641;28;20499;-58
2023/06/29 03:51:01;;;;;;;38.25;7.47;;;23.20;65.20;;;;;;5085556;28;20033;-58
2023/06/29 03:53:27;;;;;;;32.60;6.97;;;23.20;65.20;;;;;;5050689;28;20048;-58
2023/06/29 03:55:52;;;;;;;38.70;7.00;;;23.20;65.30;;;;;;5062815;28;20080;-58
2023/06/29 03:58:18;;;;;;;36.10;7.50;;;23.10;65.30;;;;;;5033393;28;20472;-58
2023/06/29 04:00:44;;;;;;;28.75;6.35;;;23.10;65.40;;;;;;5082335;28;20518;-58
2023/06/29 04:03:10;;;;;;;28.88;6.38;;;23.20;65.60;;;;;;5084807;28;20021;-58
2023/06/29 04:05:35;;;;;;;26.95;5.85;;;23.10;65.70;;;;;;5068797;28;20472;-58
2023/06/29 04:08:05;;;;;;;20.80;5.65;;;23.20;66.00;;;;;;5086583;28;20025;-58
2023/06/29 04:10:31;;;;;;;25.70;5.97;;;23.10;65.80;;;;;;5053069;28;20033;-58
2023/06/29 04:12:57;;;;;;;17.42;5.70;;;23.20;65.70;;;;;;5084865;28;20037;-58
2023/06/29 04:15:22;;;;;;;27.08;5.90;;;23.10;65.50;;;;;;5052331;28;20039;-58
2023/06/29 04:17:48;;;;;;;32.72;6.78;;;23.10;65.60;;;;;;5067686;28;20048;-58
2023/06/29 04:20:13;;;;;;;21.20;5.15;;;23.10;65.90;;;;;;5068107;28;20024;-58
2023/06/29 04:22:39;;;;;;;23.70;6.03;;;23.10;65.90;;;;;;5068503;28;20561;-58
2023/06/29 04:25:05;;;;;;;24.85;5.70;;;23.10;66.00;;;;;;5066913;28;20025;-58
2023/06/29 04:27:33;;;;;;;23.42;5.70;;;23.00;66.00;;;;;;5086413;28;20039;-58
2023/06/29 04:29:59;;;;;;;32.17;6.85;;;23.00;66.00;;;;;;5067364;28;20058;-58
2023/06/29 04:32:25;;;;;;;19.35;5.60;;;23.00;66.00;;;;;;5087343;28;20424;-58
2023/06/29 04:34:50;;;;;;;23.98;5.65;;;23.00;66.10;;;;;;5086258;28;20033;-58
2023/06/29 04:37:16;;;;;;;20.30;5.28;;;23.00;66.10;;;;;;5085988;28;20028;-58
2023/06/29 04:39:41;;;;;;;18.17;5.22;;;23.00;66.10;;;;;;5050217;28;20069;-58
2023/06/29 04:42:13;;;;;;;15.70;5.22;;;23.00;66.10;;;;;;5066936;28;20483;-58
2023/06/29 04:44:39;;;;;;;18.73;5.65;;;23.00;66.40;;;;;;5086033;28;20100;-58
2023/06/29 04:47:05;;;;;;;22.17;5.53;;;23.00;66.10;;;;;;5068064;28;20032;-58
2023/06/29 04:49:39;;;;;;;19.60;5.15;;;23.00;66.10;;;;;;5067097;28;20032;-58
2023/06/29 04:52:05;;;;;;;21.98;6.30;;;23.00;66.10;;;;;;5051102;28;20050;-58
2023/06/29 04:54:30;;;;;;;27.15;5.95;;;23.00;66.10;;;;;;5068080;28;20036;-58
2023/06/29 04:56:56;;;;;;;27.58;6.15;;;23.00;66.10;;;;;;5058538;28;20028;-58
2023/06/29 04:59:23;;;;;;;33.03;6.78;;;22.90;66.10;;;;;;5067892;28;20025;-58
2023/06/29 05:01:48;;;;;;;27.98;6.53;;;22.90;66.10;;;;;;5085224;28;20487;-58
2023/06/29 05:04:14;;;;;;;41.58;7.88;;;22.90;66.10;;;;;;5068562;28;20029;-58
2023/06/29 05:06:39;;;;;;;34.55;6.47;;;22.90;66.10;;;;;;5051016;28;20392;-58
2023/06/29 05:09:05;;;;;;;39.50;6.93;;;22.90;66.20;;;;;;5067741;28;20051;-57
2023/06/29 05:11:30;;;;;;;28.55;5.88;;;22.90;66.20;;;;;;5049497;28;20028;-57
2023/06/29 05:13:56;;;;;;;34.38;6.43;;;22.90;66.20;;;;;;5068388;28;20052;-58
2023/06/29 05:16:21;;;;;;;41.60;7.30;;;22.90;66.20;;;;;;5067614;28;20037;-57
2023/06/29 05:18:47;;;;;;;40.35;7.80;;;22.90;66.20;;;;;;5085736;28;20063;-58
2023/06/29 05:21:14;;;;;;;41.83;8.10;;;22.90;66.10;;;;;;5066231;28;20092;-57
2023/06/29 05:23:39;;;;;;;37.88;7.22;;;22.90;66.90;;;;;;5067379;28;20033;-58
2023/06/29 05:26:05;;;;;;;32.65;7.93;;;22.90;66.10;;;;;;5067382;28;20055;-57
2023/06/29 05:28:31;;;;;;;46.55;7.93;;;22.90;66.20;;;;;;5067370;28;20062;-57
2023/06/29 05:30:57;;;;;;;77.13;11.18;;;22.90;66.10;;;;;;5065823;28;20024;-57
2023/06/29 05:33:23;;;;;;;79.97;13.20;;;22.90;66.20;;;;;;5046321;28;20490;-57
2023/06/29 05:35:48;;;;;;;86.93;14.45;;;22.90;66.20;;;;;;5047814;28;20060;-57
2023/06/29 05:38:14;;;;;;;80.65;13.55;;;22.90;66.20;;;;;;5048227;28;20025;-57
2023/06/29 05:40:39;;;;;;;110.47;15.65;;;22.90;66.20;;;;;;5064653;28;20384;-57
2023/06/29 05:43:05;;;;;;;101.72;15.10;;;22.90;66.20;;;;;;5048178;28;20021;-56
2023/06/29 05:45:30;;;;;;;86.32;12.30;;;22.90;66.10;;;;;;5048001;28;20021;-57
2023/06/29 05:47:56;;;;;;;68.85;10.75;;;22.90;66.30;;;;;;5048166;28;20033;-58
2023/06/29 05:50:21;;;;;;;63.13;10.43;;;22.90;66.50;;;;;;5065786;28;20029;-57
2023/06/29 05:52:47;;;;;;;62.15;10.07;;;22.90;66.60;;;;;;5046617;28;20380;-57
2023/06/29 05:55:12;;;;;;;71.63;11.68;;;22.80;66.60;;;;;;5050984;28;20072;-57
2023/06/29 05:57:38;;;;;;;73.20;11.30;;;22.90;66.80;;;;;;5060166;28;20505;-57
2023/06/29 06:00:09;;;;;;;64.38;10.23;;;22.90;66.30;;;;;;5047172;28;20029;-57
2023/06/29 06:02:36;;;;;;;61.05;9.18;;;22.90;66.30;;;;;;5065806;28;20024;-57
2023/06/29 06:05:02;;;;;;;65.38;9.75;;;22.90;66.30;;;;;;5047616;28;20032;-58
2023/06/29 06:07:29;;;;;;;49.95;9.25;;;22.90;66.80;;;;;;5064638;28;20075;-57
2023/06/29 06:09:55;;;;;;;55.85;8.45;;;22.90;66.90;;;;;;5029226;28;20033;-57
2023/06/29 06:12:21;;;;;;;62.20;9.30;;;22.90;66.90;;;;;;5047641;28;20043;-57
2023/06/29 06:14:47;;;;;;;67.70;7.95;;;22.90;67.10;;;;;;5048039;28;20040;-57
2023/06/29 06:17:13;;;;;;;39.55;8.77;;;22.90;67.10;;;;;;5065601;28;20061;-57
2023/06/29 06:19:38;;;;;;;41.15;8.25;;;22.90;67.10;;;;;;5014719;28;20029;-57
2023/06/29 06:22:04;;;;;;;67.35;8.88;;;23.00;66.90;;;;;;5047781;28;20366;-57
2023/06/29 06:24:29;;;;;;;39.80;7.60;;;23.00;66.90;;;;;;5047736;28;20033;-57
2023/06/29 06:26:55;;;;;;;32.80;7.05;;;23.00;66.40;;;;;;5047043;28;20040;-58
2023/06/29 06:29:20;;;;;;;35.65;7.25;;;23.00;66.30;;;;;;5065251;28;20029;-57
2023/06/29 06:31:46;;;;;;;34.45;6.53;;;23.00;66.30;;;;;;5047491;28;20033;-57
2023/06/29 06:34:12;;;;;;;35.80;6.65;;;23.00;66.20;;;;;;5047656;28;20020;-57
2023/06/29 06:36:37;;;;;;;31.40;5.72;;;23.00;66.20;;;;;;5045243;28;20029;-57
2023/06/29 06:39:03;;;;;;;35.17;6.15;;;23.10;66.20;;;;;;5030945;28;20104;-57
2023/06/29 06:41:28;;;;;;;30.88;6.63;;;23.10;66.20;;;;;;5065564;28;20029;-57
2023/06/29 06:43:54;;;;;;;29.35;6.13;;;23.10;66.10;;;;;;5030621;28;20025;-57
2023/06/29 06:46:19;;;;;;;22.42;5.68;;;23.10;66.10;;;;;;5064429;28;20060;-57
2023/06/29 06:48:46;;;;;;;28.25;5.90;;;23.10;66.10;;;;;;5030323;28;20079;-57
2023/06/29 06:51:12;;;;;;;25.90;5.32;;;23.10;66.10;;;;;;5062688;28;20025;-58
2023/06/29 06:53:37;;;;;;;27.88;5.57;;;23.20;66.10;;;;;;5031717;28;20017;-57
2023/06/29 06:56:03;;;;;;;27.08;5.38;;;23.10;66.10;;;;;;5048822;28;20033;-57
2023/06/29 06:58:29;;;;;;;23.00;4.88;;;23.20;66.10;;;;;;5066328;28;20039;-57
2023/06/29 07:00:54;;;;;;;25.40;5.25;;;23.20;66.20;;;;;;5050665;28;20021;-57
2023/06/29 07:03:20;;;;;;;21.73;5.03;;;23.20;66.20;;;;;;5063641;28;20389;-58
2023/06/29 07:05:46;;;;;;;21.02;4.88;;;23.20;66.30;;;;;;5032454;28;20029;-57
2023/06/29 07:08:11;;;;;;;28.73;5.43;;;23.20;66.20;;;;;;5050542;28;20028;-57
2023/06/29 07:10:37;;;;;;;21.95;4.40;;;23.20;66.30;;;;;;5033966;28;20040;-57
2023/06/29 07:13:02;;;;;;;18.70;4.38;;;23.20;66.30;;;;;;5067984;28;20036;-57
2023/06/29 07:15:28;;;;;;;26.10;5.65;;;23.20;66.40;;;;;;5033215;28;20083;-57
2023/06/29 07:17:54;;;;;;;24.35;4.90;;;23.20;66.30;;;;;;5067858;28;20028;-57
2023/06/29 07:20:19;;;;;;;17.60;4.20;;;23.30;66.40;;;;;;5068004;28;20037;-52
2023/06/29 07:22:45;;;;;;;25.65;4.45;;;23.20;66.30;;;;;;5068129;28;20037;-52
2023/06/29 07:25:11;;;;;;;24.40;4.80;;;23.30;66.50;;;;;;5047171;28;20040;-51
2023/06/29 07:27:39;;;;;;;22.10;5.35;;;23.30;66.50;;;;;;5048156;28;20070;-52
2023/06/29 07:30:05;;;;;;;23.58;5.07;;;23.30;66.60;;;;;;5017360;28;20051;-52
2023/06/29 07:32:31;;;;;;;21.83;5.10;;;23.30;67.30;;;;;;5031258;28;20072;-52
2023/06/29 07:34:57;;;;;;;23.95;5.00;;;23.30;67.60;;;;;;5066057;28;20032;-52
2023/06/29 07:37:23;;;;;;;23.40;4.95;;;23.30;67.20;;;;;;5066500;28;20040;-52
2023/06/29 07:39:48;;;;;;;33.90;5.78;;;23.40;67.20;;;;;;5049600;28;20089;-52
2023/06/29 07:42:14;;;;;;;33.40;5.60;;;23.30;67.20;;;;;;5049804;28;20033;-52
2023/06/29 07:44:39;;;;;;;38.80;6.93;;;23.40;67.20;;;;;;5072311;28;20079;-52
2023/06/29 07:47:05;;;;;;;46.08;6.82;;;23.40;67.80;;;;;;5073482;28;20392;-52
2023/06/29 07:49:30;;;;;;;33.35;6.20;;;23.40;68.00;;;;;;5067586;28;20047;-52
2023/06/29 07:51:57;;;;;;;43.95;6.97;;;23.40;67.70;;;;;;5032889;28;20032;-53
2023/06/29 07:54:23;;;;;;;35.40;6.82;;;23.40;67.60;;;;;;5043460;28;20040;-52
2023/06/29 07:56:48;;;;;;;39.47;6.43;;;23.40;67.30;;;;;;5047235;28;20032;-52
2023/06/29 07:59:14;;;;;;;23.50;5.55;;;23.40;67.30;;;;;;5063287;28;20021;-52
2023/06/29 08:01:39;;;;;;;33.90;5.75;;;23.40;67.30;;;;;;5066780;28;20056;-52
2023/06/29 08:04:06;;;;;;;33.83;5.95;;;23.40;67.40;;;;;;5042166;28;20072;-52
2023/06/29 08:06:33;;;;;;;24.85;5.45;;;23.50;67.20;;;;;;5065714;28;20519;-52
2023/06/29 08:08:58;;;;;;;38.10;6.30;;;23.40;67.10;;;;;;5048649;28;20059;-52
2023/06/29 08:11:24;;;;;;;37.72;6.38;;;23.40;67.10;;;;;;5048802;28;20049;-52
2023/06/29 08:13:50;;;;;;;34.15;7.03;;;23.50;67.20;;;;;;5057079;28;20025;-52
2023/06/29 08:16:16;;;;;;;40.28;7.35;;;23.50;67.20;;;;;;5030953;28;20435;-52
2023/06/29 08:18:42;;;;;;;49.75;8.82;;;23.50;67.20;;;;;;5045670;28;20131;-52
2023/06/29 08:21:08;;;;;;;78.25;12.00;;;23.50;67.20;;;;;;5049294;28;20063;-52
2023/06/29 08:23:33;;;;;;;112.75;14.43;;;23.60;67.30;;;;;;5030404;28;20025;-52
2023/06/29 08:25:59;;;;;;;81.28;12.27;;;23.60;67.50;;;;;;5066038;28;20036;-52
2023/06/29 08:28:25;;;;;;;80.57;12.27;;;23.60;67.70;;;;;;5065614;28;20033;-52
2023/06/29 08:30:51;;;;;;;75.05;11.75;;;23.60;67.80;;;;;;5048995;28;20093;-52
2023/06/29 08:33:17;;;;;;;77.47;12.10;;;23.60;68.60;;;;;;5064379;28;20037;-52
2023/06/29 08:35:43;;;;;;;70.07;11.63;;;23.60;68.00;;;;;;5066120;28;20087;-52
2023/06/29 08:38:09;;;;;;;63.08;9.75;;;23.60;68.10;;;;;;5060337;28;20032;-52
2023/06/29 08:40:34;;;;;;;71.47;10.38;;;23.60;68.10;;;;;;5051794;28;20036;-52
2023/06/29 08:43:00;;;;;;;60.03;9.63;;;23.60;68.30;;;;;;5063464;28;20021;-52
2023/06/29 08:45:25;;;;;;;57.72;8.73;;;23.60;68.30;;;;;;5045168;28;20489;-52
2023/06/29 08:47:51;;;;;;;60.42;8.70;;;23.60;68.20;;;;;;5028807;28;20051;-52
2023/06/29 08:50:17;;;;;;;44.55;9.18;;;23.70;68.30;;;;;;5029190;28;20033;-52
2023/06/29 08:52:42;;;;;;;59.63;8.82;;;23.70;68.20;;;;;;5030237;28;20025;-52
2023/06/29 08:55:08;;;;;;;64.80;9.20;;;23.60;68.10;;;;;;5048621;28;20025;-52
2023/06/29 08:57:34;;;;;;;54.20;8.65;;;23.60;68.00;;;;;;5032269;28;20029;-52
2023/06/29 09:00:01;;;;;;;39.92;7.78;;;23.60;68.10;;;;;;5015924;28;20057;-52
2023/06/29 09:02:27;;;;;;;49.50;9.30;;;23.70;68.00;;;;;;5031931;28;20472;-52
2023/06/29 09:04:52;;;;;;;45.55;8.50;;;23.70;68.10;;;;;;5048219;28;20024;-52
2023/06/29 09:41:50;;;;;;;60.95;9.20;;;24.10;66.70;;;;;;3345852;26;20119;-57
2023/06/29 09:44:19;;;;;;;75.88;11.00;;;24.10;66.60;;;;;;5019989;28;20263;-58
2023/06/29 09:46:45;;;;;;;79.68;10.25;;;24.10;66.40;;;;;;5019239;28;20100;-57
2023/06/29 09:49:11;;;;;;;70.07;11.25;;;24.20;66.40;;;;;;5018740;28;20026;-57
2023/06/29 09:51:38;;;;;;;108.00;11.85;;;24.30;66.80;;;;;;5019794;28;20034;-57
2023/06/29 09:54:04;;;;;;;66.05;10.52;;;24.30;66.60;;;;;;4993425;28;20061;-57
2023/06/29 09:56:34;;;;;;;94.57;13.50;;;24.30;67.40;;;;;;5011547;28;20042;-57
2023/06/29 09:59:00;;;;;;;79.93;12.07;;;24.40;66.30;;;;;;5016027;28;20058;-57
2023/06/29 10:01:29;;;;;;;107.45;15.40;;;24.40;66.30;;;;;;5014533;28;20065;-57
2023/06/29 10:03:55;;;;;;;100.50;13.55;;;24.40;66.60;;;;;;5017829;28;20490;-58
2023/06/29 10:06:33;;;;;;;62.13;10.25;;;24.40;66.70;;;;;;5007363;28;20034;-57
2023/06/29 10:08:59;;;;;;;79.82;10.65;;;24.40;66.40;;;;;;5016200;28;20030;-57
2023/06/29 10:11:31;;;;;;;83.38;11.35;;;24.40;66.40;;;;;;4987349;28;20026;-58
2023/06/29 10:14:01;;;;;;;91.95;10.68;;;24.60;66.50;;;;;;4998603;28;20082;-58
2023/06/29 10:16:27;;;;;;;75.15;9.30;;;24.50;66.20;;;;;;5015453;28;20508;-58
2023/06/29 10:18:54;;;;;;;92.68;11.25;;;24.50;66.00;;;;;;4997441;28;20061;-58
2023/06/29 10:21:19;;;;;;;94.82;12.00;;;24.50;65.70;;;;;;4994737;28;20053;-58
2023/06/29 10:23:45;;;;;;;72.43;11.23;;;24.60;65.70;;;;;;5019449;28;20030;-57
2023/06/29 10:26:11;;;;;;;81.53;10.43;;;24.60;66.30;;;;;;5004617;28;20126;-57
2023/06/29 10:28:36;;;;;;;73.55;10.73;;;24.70;65.60;;;;;;5006584;28;20034;-57
2023/06/29 10:31:03;;;;;;;68.53;12.35;;;24.70;65.50;;;;;;5019292;28;20029;-57
2023/06/29 10:33:28;;;;;;;88.00;12.15;;;24.80;65.50;;;;;;5025378;28;20022;-57
2023/06/29 10:35:58;;;;;;;85.65;12.32;;;24.80;64.90;;;;;;5017161;28;20037;-58
2023/06/29 10:38:42;;;;;;;79.90;12.68;;;24.80;64.70;;;;;;5016896;28;20130;-57
2023/06/29 10:41:26;;;;;;;76.38;11.65;;;24.90;64.40;;;;;;5038729;28;20066;-57
2023/06/29 10:44:04;;;;;;;71.07;11.13;;;24.90;64.50;;;;;;5019941;28;20529;-57
2023/06/29 10:46:48;;;;;;;63.17;9.73;;;25.00;64.40;;;;;;5015214;28;20053;-57
2023/06/29 10:49:24;;;;;;;76.68;12.80;;;25.10;64.90;;;;;;5017457;28;20085;-57
2023/06/29 10:51:51;;;;;;;100.30;12.10;;;25.10;64.10;;;;;;5024615;28;20136;-57
2023/06/29 10:54:16;;;;;;;81.32;11.93;;;25.20;64.00;;;;;;5016407;28;20022;-57
2023/06/29 10:56:55;;;;;;;64.72;11.38;;;25.30;63.70;;;;;;5018352;28;20048;-57
2023/06/29 10:59:20;;;;;;;76.97;12.55;;;25.30;64.10;;;;;;5014711;28;20022;-57
2023/06/29 11:01:46;;;;;;;71.45;12.20;;;25.40;63.20;;;;;;5006550;28;20045;-57
2023/06/29 11:04:11;;;;;;;69.35;11.25;;;25.50;63.10;;;;;;5016144;28;20092;-57
2023/06/29 11:06:37;;;;;;;69.53;11.85;;;25.60;62.70;;;;;;5011302;28;20035;-57
2023/06/29 11:09:13;;;;;;;56.15;11.38;;;25.60;62.20;;;;;;5027272;28;20029;-57
2023/06/29 11:11:41;;;;;;;52.92;10.57;;;25.70;62.10;;;;;;5023461;28;20031;-58
2023/06/29 11:14:09;;;;;;;79.88;12.55;;;25.80;61.90;;;;;;5018702;28;20026;-57
2023/06/29 11:16:36;;;;;;;83.75;12.50;;;25.90;61.80;;;;;;5004417;28;20030;-57
2023/06/29 11:19:02;;;;;;;63.33;11.35;;;26.00;61.80;;;;;;5005862;28;20113;-57
2023/06/29 11:21:28;;;;;;;89.30;12.70;;;26.10;61.40;;;;;;5023036;28;20072;-57
2023/06/29 11:23:54;;;;;;;80.05;12.02;;;26.20;61.30;;;;;;5019975;28;20026;-57
2023/06/29 11:26:20;;;;;;;65.32;11.00;;;26.30;61.00;;;;;;5017783;28;20429;-57
2023/06/29 11:28:51;;;;;;;70.45;10.73;;;26.30;60.80;;;;;;4999506;28;20510;-57
2023/06/29 11:31:16;;;;;;;46.13;10.35;;;26.50;60.60;;;;;;5017428;28;20018;-57
2023/06/29 11:33:49;;;;;;;68.47;11.15;;;26.50;60.60;;;;;;5019888;28;20029;-57
2023/06/29 11:36:14;;;;;;;57.30;10.85;;;26.50;60.40;;;;;;5017499;28;20052;-57
2023/06/29 11:38:40;;;;;;;55.70;10.52;;;26.60;60.50;;;;;;5016995;28;20033;-57
2023/06/29 11:41:06;;;;;;;56.30;10.52;;;26.70;60.50;;;;;;5004693;28;20048;-57
2023/06/29 11:43:31;;;;;;;52.50;10.13;;;26.80;60.30;;;;;;5018122;28;20038;-57
2023/06/29 11:45:57;;;;;;;53.13;9.95;;;26.80;60.00;;;;;;5014227;28;20037;-57
2023/06/29 11:48:23;;;;;;;48.63;10.45;;;26.90;60.00;;;;;;5010242;28;20033;-57
2023/06/29 11:50:48;;;;;;;54.13;9.60;;;27.00;60.00;;;;;;5019003;28;20072;-57
2023/06/29 11:53:15;;;;;;;57.03;11.25;;;27.10;59.90;;;;;;5016243;28;20033;-58
2023/06/29 11:55:52;;;;;;;47.13;10.93;;;27.10;59.80;;;;;;5016757;28;20092;-57
2023/06/29 11:58:18;;;;;;;60.55;10.93;;;27.20;59.60;;;;;;5014421;28;20109;-57
2023/06/29 12:00:43;;;;;;;61.88;10.52;;;27.30;59.40;;;;;;5012938;28;20046;-57
2023/06/29 12:03:10;;;;;;;40.58;8.70;;;27.40;59.50;;;;;;5021151;28;20026;-58
2023/06/29 12:05:41;;;;;;;47.95;9.57;;;27.50;60.10;;;;;;5023067;28;20054;-58
2023/06/29 12:08:08;;;;;;;40.72;10.02;;;27.50;59.20;;;;;;4992568;28;20030;-58
2023/06/29 12:10:35;;;;;;;51.08;9.07;;;27.60;59.40;;;;;;5021994;28;20034;-58
2023/06/29 12:13:01;;;;;;;39.05;9.20;;;27.70;59.10;;;;;;5016077;28;20072;-58
2023/06/29 12:15:27;;;;;;;49.63;9.75;;;27.80;59.00;;;;;;5020529;28;20160;-58
2023/06/29 12:17:59;;;;;;;45.85;8.65;;;27.90;58.80;;;;;;5017212;28;20037;-58
2023/06/29 12:20:25;;;;;;;51.17;9.10;;;28.00;58.70;;;;;;5020542;28;20034;-58
2023/06/29 12:22:53;;;;;;;31.40;8.90;;;28.10;58.80;;;;;;5022629;28;20106;-58
2023/06/29 12:25:19;;;;;;;50.45;10.48;;;28.20;58.60;;;;;;5016350;28;20070;-57
2023/06/29 12:27:48;;;;;;;40.35;10.15;;;28.30;58.50;;;;;;5016330;28;20026;-57
2023/06/29 12:30:16;;;;;;;45.20;9.82;;;28.40;58.20;;;;;;5023527;28;20030;-58
2023/06/29 12:32:42;;;;;;;42.70;10.10;;;28.40;58.10;;;;;;5025446;28;20104;-58
2023/06/29 12:35:08;;;;;;;34.15;9.85;;;28.50;58.20;;;;;;5007573;28;20030;-58
2023/06/29 12:37:33;;;;;;;32.35;10.40;;;28.60;57.90;;;;;;5009493;28;20481;-58
2023/06/29 12:39:59;;;;;;;49.70;11.30;;;28.70;57.80;;;;;;5024122;28;20044;-58
2023/06/29 12:42:25;;;;;;;45.85;11.02;;;28.80;57.60;;;;;;5026584;28;20034;-58
2023/06/29 12:44:50;;;;;;;43.50;11.77;;;28.90;57.90;;;;;;5024862;28;20025;-58
2023/06/29 12:47:18;;;;;;;61.72;12.75;;;29.00;57.50;;;;;;5009012;28;20477;-58
2023/06/29 12:49:45;;;;;;;44.88;12.30;;;29.10;57.00;;;;;;5025507;28;20030;-58
2023/06/29 12:52:10;;;;;;;79.03;15.05;;;29.20;56.90;;;;;;5025122;28;20060;-58
2023/06/29 12:54:37;;;;;;;61.15;14.02;;;29.30;56.70;;;;;;5006626;28;20109;-58
2023/06/29 12:57:03;;;;;;;51.33;12.80;;;29.30;56.20;;;;;;5015823;28;20060;-58
2023/06/29 12:59:29;;;;;;;53.15;12.48;;;29.30;56.30;;;;;;5025521;28;20018;-58
2023/06/29 13:01:55;;;;;;;62.70;14.25;;;29.40;56.60;;;;;;5024522;28;20030;-58
2023/06/29 13:04:20;;;;;;;62.85;13.82;;;29.60;56.50;;;;;;5022771;28;20022;-58
2023/06/29 13:06:46;;;;;;;59.28;13.60;;;29.60;56.30;;;;;;5007643;28;20034;-58